Manfred, North Dakota
Current Conditions -  °F | °C
As of 5:35 AM on Thursday 18 Dec 2014 (Local Time) from K5H4 Reporting Station
Overcast Overcast  
Wind Chill:   Ceiling: 7000
Heat Index: 14°   Visibility: 10mi
Dew Point: 10°   Wind: 8mph
Humidity: 86%   Direction: 150°SSE
Pressure: 30.11"   Gusts: NA
Location:  47.7822°N, 99.8441°W
Report Text: K5H4 181135Z AUTO 15007KT 10SM BKN070 OVC090 M10/M12 A3011 RMK AO2
Loading
Personal Weather Stations






























Interactive Weather Map New forecast layout! Learn more

10-Day Weather Forecast

Advertisements
Track Severe Weather on mobile